Time;durP1;ratioP1;P1;durP2;ratioP2;P2;SDS_P1;SDS_P2;PMS_P1;PMS_P2;Temp;Humidity;BMP_temperature;BMP_pressure;BME280_temperature;BME280_humidity;BME280_pressure;Samples;Min_cycle;Max_cycle;Signal;HPM_P1;HPM_P2
2021/06/20 00:01:18;;;;;;;4.30;3.98;;;;;;;20.07;72.18;94276.55;827592;71;31737;-77
2021/06/20 00:16:08;;;;;;;3.90;3.60;;;;;;;19.92;72.35;94266.20;829860;71;28679;-79
2021/06/20 00:31:09;;;;;;;4.75;3.30;;;;;;;19.85;72.81;94264.73;828853;71;29275;-79
2021/06/20 00:46:18;;;;;;;4.20;3.80;;;;;;;19.95;73.63;94277.47;829493;71;31675;-78
2021/06/20 01:01:08;;;;;;;3.50;3.30;;;;;;;19.88;73.40;94260.80;828442;71;28670;-77
2021/06/20 01:16:14;;;;;;;3.58;3.27;;;;;;;19.84;73.00;94245.89;828289;71;30991;-77
2021/06/20 01:31:14;;;;;;;3.90;3.60;;;;;;;19.78;72.75;94250.16;834101;71;31730;-77
2021/06/20 01:46:10;;;;;;;3.70;3.40;;;;;;;19.79;72.53;94253.61;834109;71;29725;-79
2021/06/20 02:01:17;;;;;;;4.10;3.75;;;;;;;19.72;72.49;94272.10;828004;71;31772;-78
2021/06/20 02:16:15;;;;;;;4.45;4.05;;;;;;;19.68;72.33;94271.23;827654;71;32257;-77
2021/06/20 02:31:08;;;;;;;3.27;3.08;;;;;;;19.58;72.48;94274.66;828289;71;28756;-76
2021/06/20 02:46:16;;;;;;;3.90;3.15;;;;;;;19.29;72.55;94272.55;827569;71;32261;-78
2021/06/20 03:16:09;;;;;;;3.70;3.50;;;;;;;19.20;72.64;94262.08;834254;71;29255;-77
2021/06/20 03:31:08;;;;;;;3.90;3.70;;;;;;;19.35;71.68;94265.83;828373;71;29113;-77
2021/06/20 03:46:10;;;;;;;4.62;4.33;;;;;;;20.45;68.42;94270.92;828313;71;29299;-77
2021/06/20 04:01:14;;;;;;;4.30;3.90;;;;;;;21.76;64.32;94250.50;829126;71;31704;-81
2021/06/20 04:16:09;;;;;;;3.80;3.60;;;;;;;23.20;59.94;94258.62;832017;71;28740;-78
2021/06/20 04:31:17;;;;;;;4.40;4.10;;;;;;;24.61;57.35;94271.91;827524;71;31666;-78
2021/06/20 04:46:28;;;;;;;6.63;6.00;;;;;;;25.90;54.38;94280.36;827471;71;32182;-80
2021/06/20 05:01:07;;;;;;;6.37;5.80;;;;;;;;;;834121;71;28624;-79
2021/06/20 05:16:11;;;;;;;7.30;6.70;;;;;;;27.20;50.83;94293.12;834338;71;29396;-82
2021/06/20 05:31:14;;;;;;;7.30;6.60;;;;;;;26.81;51.60;94287.50;827606;71;32235;-77
2021/06/20 05:46:13;;;;;;;6.27;5.67;;;;;;;;;;828880;71;31738;-79
2021/06/20 06:01:12;;;;;;;6.03;5.53;;;;;;;24.02;54.63;94305.69;828582;71;30962;-78
2021/06/20 06:16:15;;;;;;;5.83;5.23;;;;;;;24.23;56.11;94279.53;834401;71;31690;-81
2021/06/20 06:31:59;;;;;;;4.87;4.57;;;;;;;25.78;51.64;94267.49;752071;74;32238;-88
2021/06/20 07:01:44;;;;;;;5.23;4.83;;;;;;;26.16;50.94;94277.73;827007;69;33267;-84
2021/06/20 07:16:15;;;;;;;3.47;3.27;;;;;;;26.67;48.32;94252.62;831753;71;30713;-87
2021/06/20 07:31:08;;;;;;;4.03;3.73;;;;;;;26.72;47.97;94250.83;828982;71;27726;-84
2021/06/20 07:46:19;;;;;;;5.00;4.57;;;;;;;26.60;46.73;94244.00;828308;71;30894;-83
2021/06/20 08:01:10;;;;;;;4.20;3.90;;;;;;;26.71;46.28;94240.65;828535;71;30355;-84
2021/06/20 08:16:16;;;;;;;4.20;3.90;;;;;;;25.80;49.66;94252.33;834671;71;31689;-84
2021/06/20 08:31:23;;;;;;;4.20;3.70;;;;;;;;;;822705;71;30845;-86
2021/06/20 08:46:50;;;;;;;3.87;3.57;;;;;;;27.63;44.61;94248.80;817719;72;31843;-82
2021/06/20 09:16:10;;;;;;;3.30;3.10;;;;;;;26.92;44.96;94238.34;833859;71;31311;-78
2021/06/20 09:31:19;;;;;;;3.83;3.60;;;;;;;26.97;45.67;94230.43;827839;71;29174;-75
2021/06/20 09:46:20;;;;;;;3.57;3.37;;;;;;;26.60;45.60;94227.09;833853;71;33172;-75
2021/06/20 10:01:11;;;;;;;2.97;2.87;;;;;;;25.45;47.37;94217.73;827894;71;29723;-77
2021/06/20 10:16:24;;;;;;;3.77;3.57;;;;;;;25.11;49.32;94198.05;834128;71;31480;-76
2021/06/20 10:31:10;;;;;;;3.13;2.93;;;;;;;25.73;49.39;94185.14;828436;71;29785;-76
2021/06/20 10:46:17;;;;;;;3.83;3.50;;;;;;;24.90;52.25;94183.31;834231;71;32637;-75
2021/06/20 11:01:17;;;;;;;4.43;3.57;;;;;;;25.54;50.84;94162.98;827571;71;33125;-75
2021/06/20 11:16:15;;;;;;;3.47;3.23;;;;;;;26.24;47.65;94139.33;834556;71;30307;-76
2021/06/20 11:31:11;;;;;;;3.80;3.50;;;;;;;26.44;47.73;165641.50;828273;71;30291;-76
2021/06/20 11:46:18;;;;;;;3.20;3.00;;;;;;;;;;827403;71;32667;-78
2021/06/20 12:01:08;;;;;;;4.17;3.93;;;;;;;27.32;45.37;94107.30;818225;71;29586;-77
2021/06/20 12:16:09;;;;;;;4.80;4.40;;;;;;;27.53;43.67;94098.91;828258;71;30379;-79
2021/06/20 12:31:13;;;;;;;3.87;3.63;;;;;;;;;;827748;71;33161;-79
2021/06/20 12:46:09;;;;;;;4.40;4.00;;;;;;;;;;825899;71;30285;-78
2021/06/20 13:01:10;;;;;;;4.03;3.73;;;;;;;25.95;48.89;94089.80;828144;71;30334;-76
2021/06/20 13:16:07;;;;;;;3.33;3.13;;;;;;;;;;828346;71;30256;-77
2021/06/20 13:31:09;;;;;;;3.73;3.43;;;;;;;25.51;53.79;94129.43;828342;71;29748;-79
2021/06/20 13:46:11;;;;;;;3.73;3.40;;;;;;;25.34;56.73;94127.00;834238;71;30292;-77
2021/06/20 14:01:15;;;;;;;4.37;3.97;;;;;;;25.10;62.45;94113.28;827570;71;32713;-76
2021/06/20 14:16:14;;;;;;;4.70;4.30;;;;;;;25.08;63.48;94106.20;834168;71;32663;-77
2021/06/20 14:31:08;;;;;;;5.03;4.70;;;;;;;25.12;62.64;94107.50;828583;71;29697;-75
2021/06/20 14:32:12;;;;;;;7.10;5.10;;;;;;;25.08;62.70;94103.51;808768;73;26676;-79
2021/06/20 14:46:24;;;;;;;7.40;5.93;;;;;;;24.95;61.77;94080.92;835117;71;32724;-78
2021/06/20 15:16:08;;;;;;;4.53;4.13;;;;;;;25.24;56.99;94077.55;829430;71;29693;-76
2021/06/20 15:31:11;;;;;;;4.53;4.23;;;;;;;24.91;55.90;94074.22;834137;71;32046;-78
2021/06/20 15:46:08;;;;;;;3.80;3.60;;;;;;;24.68;55.71;94073.94;828293;71;29646;-77
2021/06/20 16:01:14;;;;;;;3.83;3.63;;;;;;;24.55;55.07;94060.94;827497;71;32756;-76
2021/06/20 16:16:08;;;;;;;4.20;3.90;;;;;;;24.57;55.19;94062.66;828328;71;29766;-76
2021/06/20 16:31:14;;;;;;;4.10;3.80;;;;;;;24.65;54.47;94071.44;827583;71;33180;-75
2021/06/20 16:46:10;;;;;;;4.20;3.90;;;;;;;24.84;58.84;94064.88;835255;71;30330;-76
2021/06/20 17:01:15;;;;;;;4.33;4.03;;;;;;;24.02;57.31;94075.73;821286;71;32019;-77
2021/06/20 17:16:08;;;;;;;4.47;4.10;;;;;;;23.20;59.50;94092.64;830041;71;29716;-77
2021/06/20 17:31:08;;;;;;;4.63;4.23;;;;;;;23.15;61.35;94088.22;832173;71;29752;-76
2021/06/20 17:46:08;;;;;;;10.27;6.60;;;;;;;23.08;61.39;94089.55;833979;71;30144;-78
2021/06/20 18:01:18;;;;;;;5.37;4.83;;;;;;;23.47;62.31;94101.69;815205;71;33421;-78
2021/06/20 18:16:15;;;;;;;17.60;15.90;;;;;;;22.73;63.94;94120.30;827287;71;33140;-78
2021/06/20 18:31:11;;;;;;;11.10;7.07;;;;;;;22.79;64.37;94126.28;828040;71;31442;-77
2021/06/20 18:46:14;;;;;;;6.87;5.00;;;;;;;23.54;62.71;94145.13;827543;71;33188;-76
2021/06/20 19:01:14;;;;;;;5.47;5.00;;;;;;;23.92;61.66;94150.39;833800;71;32624;-76
2021/06/20 19:16:15;;;;;;;9.40;7.80;;;;;;;23.83;60.77;94168.77;827276;71;33285;-77
2021/06/20 19:31:15;;;;;;;6.70;6.10;;;;;;;23.63;60.18;94209.08;814128;71;32773;-77
2021/06/20 19:46:09;;;;;;;8.23;6.93;;;;;;;23.70;60.25;94229.97;828000;71;30272;-77
2021/06/20 20:01:10;;;;;;;6.07;5.47;;;;;;;23.69;60.84;94220.95;828052;71;30350;-76
2021/06/20 20:16:14;;;;;;;5.70;5.27;;;;;;;23.59;60.55;94216.52;827458;71;32649;-76
2021/06/20 20:31:23;;;;;;;7.17;6.47;;;;;;;22.85;61.23;94218.22;829582;71;32797;-84
2021/06/20 20:46:09;;;;;;;6.03;4.93;;;;;;;22.65;66.37;94192.30;823968;70;29722;-80
2021/06/20 21:16:09;;;;;;;5.40;4.90;;;;;;;23.37;61.05;94190.80;833951;71;30343;-78
2021/06/20 21:31:13;;;;;;;5.43;4.93;;;;;;;23.43;60.10;94186.61;828207;71;33059;-77
2021/06/20 21:46:08;;;;;;;4.50;4.20;;;;;;;23.36;60.04;94198.66;834105;71;29800;-77
2021/06/20 22:01:14;;;;;;;6.80;4.60;;;;;;;23.43;59.80;94182.59;834178;71;32695;-79
2021/06/20 22:16:14;;;;;;;5.10;4.60;;;;;;;23.43;59.77;94175.14;825286;71;32621;-78
2021/06/20 22:31:14;;;;;;;4.83;4.53;;;;;;;23.44;59.77;94176.11;828047;71;33099;-78
2021/06/20 22:46:14;;;;;;;8.00;5.87;;;;;;;23.44;59.42;94178.00;835448;71;33243;-78
2021/06/20 23:01:08;;;;;;;8.93;6.83;;;;;;;23.38;59.54;94174.95;834213;71;29728;-78
2021/06/20 23:16:15;;;;;;;7.47;6.87;;;;;;;23.34;59.94;94155.42;827522;71;32976;-78
2021/06/20 23:31:09;;;;;;;7.57;6.90;;;;;;;23.32;60.17;94154.45;828422;71;29749;-77
2021/06/20 23:46:16;;;;;;;8.33;7.50;;;;;;;23.25;60.90;94152.31;827472;71;32750;-78
